createdAt,value
2023-05-09T00:08:03.066Z,1.00
2023-05-09T00:18:05.322Z,0.73
2023-05-09T00:28:08.788Z,0.73
2023-05-09T00:38:10.734Z,0.80
2023-05-09T00:48:15.041Z,0.60
2023-05-09T00:58:17.133Z,0.80
2023-05-09T01:08:30.408Z,1.10
2023-05-09T01:18:40.284Z,1.30
2023-05-09T01:29:05.675Z,0.90
2023-05-09T01:39:12.166Z,0.50
2023-05-09T01:49:14.778Z,0.50
2023-05-09T01:59:19.444Z,0.50
2023-05-09T02:09:21.694Z,0.70
2023-05-09T02:19:25.122Z,0.60
2023-05-09T02:29:31.697Z,0.57
2023-05-09T02:39:36.444Z,0.82
2023-05-09T02:49:38.397Z,0.77
2023-05-09T02:59:41.693Z,0.93
2023-05-09T03:09:43.625Z,0.40
2023-05-09T03:19:47.031Z,0.70
2023-05-09T03:29:48.965Z,0.65
2023-05-09T03:39:52.264Z,0.60
2023-05-09T03:49:54.186Z,0.73
2023-05-09T03:59:57.593Z,0.50
2023-05-09T04:09:59.958Z,0.60
2023-05-09T04:20:03.590Z,0.88
2023-05-09T04:30:06.927Z,0.90
2023-05-09T04:40:11.262Z,1.25
2023-05-09T04:50:13.493Z,1.85
2023-05-09T05:00:17.187Z,2.10
2023-05-09T05:10:19.159Z,2.33
2023-05-09T05:20:22.426Z,3.03
2023-05-09T05:30:24.368Z,2.92
2023-05-09T05:40:27.645Z,3.53
2023-05-09T05:50:29.652Z,4.40
2023-05-09T06:00:33.079Z,4.25
2023-05-09T06:10:35.026Z,3.28
2023-05-09T06:20:38.325Z,3.72
2023-05-09T06:30:40.293Z,4.50
2023-05-09T06:40:43.585Z,4.82
2023-05-09T06:50:45.641Z,4.95
2023-05-09T07:00:49.009Z,5.00
2023-05-09T07:10:51.057Z,4.30
2023-05-09T07:20:54.420Z,4.60
2023-05-09T07:30:56.363Z,4.72
2023-05-09T07:40:59.662Z,4.40
2023-05-09T07:51:01.677Z,5.18
2023-05-09T08:01:04.993Z,3.88
2023-05-09T08:11:06.938Z,3.33
2023-05-09T08:21:10.260Z,3.47
2023-05-09T08:31:12.219Z,3.03
2023-05-09T08:41:15.878Z,2.97
2023-05-09T08:51:18.195Z,2.13
2023-05-09T09:01:22.340Z,2.10
2023-05-09T09:11:24.664Z,1.77
2023-05-09T09:21:28.706Z,1.55
2023-05-09T09:31:32.115Z,1.88
2023-05-09T09:41:37.398Z,1.77
2023-05-09T09:51:40.434Z,1.50
2023-05-09T10:02:01.869Z,1.98
2023-05-09T10:12:06.697Z,1.85
2023-05-09T10:22:11.911Z,2.00
2023-05-09T10:32:18.271Z,1.90
2023-05-09T10:42:22.549Z,1.98
2023-05-09T10:52:24.484Z,2.25
2023-05-09T11:02:27.881Z,1.58
2023-05-09T11:12:29.862Z,1.73
2023-05-09T11:22:40.904Z,1.90
2023-05-09T11:32:45.546Z,1.70
2023-05-09T11:42:50.759Z,1.67
2023-05-09T11:52:54.037Z,1.75
2023-05-09T12:02:57.600Z,2.08
2023-05-09T12:12:59.617Z,1.75
2023-05-09T12:23:03.638Z,1.92
2023-05-09T12:33:05.791Z,1.98
2023-05-09T12:43:09.154Z,2.55
2023-05-09T12:53:11.068Z,3.00
2023-05-09T13:04:28.613Z,2.70
2023-05-09T13:13:47.199Z,2.97
2023-05-09T13:23:50.555Z,2.78
2023-05-09T13:33:52.652Z,3.45
2023-05-09T13:43:55.998Z,2.75
2023-05-09T13:53:58.162Z,2.83
2023-05-09T14:04:02.042Z,3.47
2023-05-09T14:14:04.033Z,3.10
2023-05-09T14:24:08.330Z,2.30
2023-05-09T14:34:10.385Z,2.88
2023-05-09T14:44:13.698Z,3.47
2023-05-09T14:54:15.612Z,2.65
2023-05-09T15:04:19.020Z,2.50
2023-05-09T15:14:20.975Z,3.58
2023-05-09T15:24:24.677Z,3.60
2023-05-09T15:34:26.630Z,2.80
2023-05-09T15:44:29.945Z,3.03
2023-05-09T15:54:32.350Z,2.47
2023-05-09T16:04:35.688Z,2.58
2023-05-09T16:14:37.642Z,1.75
2023-05-09T16:24:40.967Z,1.42
2023-05-09T16:34:42.898Z,1.85
2023-05-09T16:44:46.196Z,3.63
2023-05-09T16:54:48.108Z,1.30
2023-05-09T17:04:51.404Z,1.95
2023-05-09T17:14:53.665Z,2.03
2023-05-09T17:24:57.065Z,1.48
2023-05-09T17:34:58.957Z,1.67
2023-05-09T17:45:40.063Z,1.60
2023-05-09T17:55:42.599Z,1.50
2023-05-09T18:05:45.886Z,1.52
2023-05-09T18:15:47.892Z,2.47
2023-05-09T18:25:51.292Z,1.27
2023-05-09T18:35:54.022Z,1.85
2023-05-09T18:45:57.361Z,1.20
2023-05-09T18:55:59.423Z,1.70
2023-05-09T19:06:02.788Z,2.25
2023-05-09T19:16:05.513Z,1.65
2023-05-09T19:26:09.715Z,2.13
2023-05-09T19:36:11.650Z,1.75
2023-05-09T19:46:15.407Z,1.85
2023-05-09T19:56:17.404Z,2.47
2023-05-09T20:06:20.716Z,1.90
2023-05-09T20:16:22.756Z,2.45
2023-05-09T20:26:28.383Z,2.33
2023-05-09T20:36:30.405Z,2.40
2023-05-09T20:46:33.830Z,2.20
2023-05-09T20:56:39.005Z,2.80
2023-05-09T21:06:42.291Z,3.38
2023-05-09T21:16:44.245Z,2.63
2023-05-09T21:26:47.530Z,2.50
2023-05-09T21:36:49.440Z,2.53
2023-05-09T21:46:52.770Z,1.98
2023-05-09T21:56:54.735Z,2.03
2023-05-09T22:06:58.045Z,2.70
2023-05-09T22:16:59.953Z,2.03
2023-05-09T22:27:03.223Z,2.60
2023-05-09T22:37:05.382Z,2.38
2023-05-09T22:47:08.708Z,3.20
2023-05-09T22:57:10.645Z,2.90
2023-05-09T23:07:14.000Z,3.58
2023-05-09T23:17:15.966Z,5.70
2023-05-09T23:27:19.298Z,5.80
2023-05-09T23:37:21.173Z,5.57
2023-05-09T23:47:24.540Z,5.30
2023-05-09T23:57:26.455Z,10.15
